Levering, MI (49755)

3:10 PM EDT on August 31, 2015 (GMT -0400)
North Levering MI | | Change Station
CLOSE
Current Station
Personal Weather Station
Location: Levering, MI
Elevation: 741 ft
Nearby Weather Stations

Elev 741 ft 45.67 °N, 84.79 °W | Updated 16 seconds ago

Partly Cloudy
Partly Cloudy
77.8 °F
Feels Like 80 °F
N
7.8
Wind Variable Wind from WNW
Gusts 15.0 mph

Today
High -- | Low -- °F
--% Chance of Precip.
Yesterday
High -- | Low -- °F
Precip. -- in
6:59 AM 8:19 PM
Waning Gibbous, 94% visible
Pressure 30.01 in
Visibility 10.0 miles
Clouds Clear
Heat Index 80 °F
Dew Point 67 °F
Humidity 69%
Rainfall 0.00 in
Snow Depth Not available.
UV 7 out of 12
Pollen 10.50 out of 12
Air Quality Not available.
Flu Activity Not available.
METAR KPLN 311854Z AUTO 27010KT 10SM CLR 26/19 A3002 RMK AO2 SLP161 T02610189
Pressure 30.01 in
Visibility 10.0 miles
Clouds Clear
Heat Index 80 °F
Dew Point 67 °F
Humidity 69%
Rainfall 0.00 in
Snow Depth Not available.
UV 7 out of 12
Pollen 10.50 out of 12
Air Quality Not available.
Flu Activity Not available.
METAR KPLN 311854Z AUTO 27010KT 10SM CLR 26/19 A3002 RMK AO2 SLP161 T02610189
Nowcast | as of 3:00 PM EDT on August 31, 2015

At 4 PM...mostly clear. Temperature 76. West winds 8 mph. At 6 PM...mostly clear. Temperature 77. West winds 7 mph. At 8 PM...mostly clear. Temperature 72. West winds 5 mph. At 10 PM...mostly clear. Temperature 69. Light winds.

×

10-Day Weather Forecast

×

Almanac

Astronomy

Aug. 31, 2015 Rise Set
Actual Time
Civil Twilight
Nautical Twilight
Astronomical Twilight
Moon
Length of Visible Light
Length of Day
Tomorrow will be .
, % of the Moon is Illuminated

Today's Extremes

State Highs State Lows

Community

WunderPhotos

Upload Photos

1,851,340 photos uploaded!

WunderBlogs® & News

Nearby

Air Quality

  Air Quality AQ Index Pollutant
Not available.

Snow Depth

Station Depth Elevation

Earthquake Activity

City Distance Mag. Time & Date
Minimum magnitude displayed is 2.5.

Coastal Water Temperatures

Place Temperature

Stations

Nearby Weather Stations

Station Location Temp. Windchill Dew Point Humidity Wind Precip. Elev Updated Type